sensor_id;sensor_type;location;lat;lon;timestamp;P1;durP1;ratioP1;P2;durP2;ratioP2
70270;SDS011;57680;54.292;18.598;2023-12-29T00:01:23;9.27;;;3.00;;
70270;SDS011;57680;54.292;18.598;2023-12-29T00:03:49;6.63;;;2.23;;
70270;SDS011;57680;54.292;18.598;2023-12-29T00:06:14;6.63;;;2.70;;
70270;SDS011;57680;54.292;18.598;2023-12-29T00:08:40;6.05;;;2.53;;
70270;SDS011;57680;54.292;18.598;2023-12-29T00:11:05;8.20;;;2.53;;
70270;SDS011;57680;54.292;18.598;2023-12-29T00:13:30;7.40;;;2.90;;
70270;SDS011;57680;54.292;18.598;2023-12-29T00:15:56;6.23;;;2.30;;
70270;SDS011;57680;54.292;18.598;2023-12-29T00:18:21;8.30;;;2.97;;
70270;SDS011;57680;54.292;18.598;2023-12-29T00:20:47;6.90;;;2.47;;
70270;SDS011;57680;54.292;18.598;2023-12-29T00:23:13;8.10;;;2.27;;
70270;SDS011;57680;54.292;18.598;2023-12-29T00:25:38;6.25;;;2.35;;
70270;SDS011;57680;54.292;18.598;2023-12-29T00:28:04;6.60;;;2.87;;
70270;SDS011;57680;54.292;18.598;2023-12-29T00:30:30;7.53;;;2.75;;
70270;SDS011;57680;54.292;18.598;2023-12-29T00:32:56;7.27;;;2.70;;
70270;SDS011;57680;54.292;18.598;2023-12-29T00:35:21;6.18;;;2.70;;
70270;SDS011;57680;54.292;18.598;2023-12-29T00:37:47;7.63;;;2.90;;
70270;SDS011;57680;54.292;18.598;2023-12-29T00:40:12;6.47;;;2.70;;
70270;SDS011;57680;54.292;18.598;2023-12-29T00:42:38;7.70;;;2.88;;
70270;SDS011;57680;54.292;18.598;2023-12-29T00:45:04;8.67;;;2.37;;
70270;SDS011;57680;54.292;18.598;2023-12-29T00:47:30;6.70;;;2.53;;
70270;SDS011;57680;54.292;18.598;2023-12-29T00:49:55;7.27;;;2.50;;
70270;SDS011;57680;54.292;18.598;2023-12-29T00:52:21;8.47;;;2.60;;
70270;SDS011;57680;54.292;18.598;2023-12-29T00:54:46;7.83;;;2.70;;
70270;SDS011;57680;54.292;18.598;2023-12-29T00:57:11;7.67;;;2.53;;
70270;SDS011;57680;54.292;18.598;2023-12-29T00:59:37;7.77;;;2.67;;
70270;SDS011;57680;54.292;18.598;2023-12-29T01:02:03;9.82;;;2.92;;
70270;SDS011;57680;54.292;18.598;2023-12-29T01:04:28;7.87;;;2.90;;
70270;SDS011;57680;54.292;18.598;2023-12-29T01:06:53;6.77;;;2.70;;
70270;SDS011;57680;54.292;18.598;2023-12-29T01:09:19;7.57;;;2.60;;
70270;SDS011;57680;54.292;18.598;2023-12-29T01:11:44;7.03;;;3.00;;
70270;SDS011;57680;54.292;18.598;2023-12-29T01:14:09;6.03;;;2.70;;
70270;SDS011;57680;54.292;18.598;2023-12-29T01:16:35;6.20;;;2.38;;
70270;SDS011;57680;54.292;18.598;2023-12-29T01:19:00;7.60;;;2.60;;
70270;SDS011;57680;54.292;18.598;2023-12-29T01:21:26;6.73;;;2.60;;
70270;SDS011;57680;54.292;18.598;2023-12-29T01:23:51;7.45;;;2.72;;
70270;SDS011;57680;54.292;18.598;2023-12-29T01:26:17;6.57;;;2.70;;
70270;SDS011;57680;54.292;18.598;2023-12-29T01:28:42;6.83;;;2.70;;
70270;SDS011;57680;54.292;18.598;2023-12-29T01:31:08;8.67;;;2.50;;
70270;SDS011;57680;54.292;18.598;2023-12-29T01:33:33;6.00;;;2.90;;
70270;SDS011;57680;54.292;18.598;2023-12-29T01:35:58;6.75;;;3.08;;
70270;SDS011;57680;54.292;18.598;2023-12-29T01:38:24;7.17;;;2.53;;
70270;SDS011;57680;54.292;18.598;2023-12-29T01:40:49;7.33;;;2.43;;
70270;SDS011;57680;54.292;18.598;2023-12-29T01:43:15;7.27;;;2.60;;
70270;SDS011;57680;54.292;18.598;2023-12-29T01:45:40;7.40;;;2.90;;
70270;SDS011;57680;54.292;18.598;2023-12-29T01:48:06;7.93;;;2.80;;
70270;SDS011;57680;54.292;18.598;2023-12-29T01:50:32;5.88;;;2.30;;
70270;SDS011;57680;54.292;18.598;2023-12-29T01:52:58;6.68;;;2.70;;
70270;SDS011;57680;54.292;18.598;2023-12-29T01:55:26;5.67;;;2.40;;
70270;SDS011;57680;54.292;18.598;2023-12-29T01:57:51;6.03;;;2.55;;
70270;SDS011;57680;54.292;18.598;2023-12-29T02:00:17;5.93;;;2.63;;
70270;SDS011;57680;54.292;18.598;2023-12-29T02:02:43;6.70;;;2.63;;
70270;SDS011;57680;54.292;18.598;2023-12-29T02:05:11;7.47;;;2.70;;
70270;SDS011;57680;54.292;18.598;2023-12-29T02:07:39;5.30;;;2.08;;
70270;SDS011;57680;54.292;18.598;2023-12-29T02:10:05;8.40;;;2.77;;
70270;SDS011;57680;54.292;18.598;2023-12-29T02:12:31;7.28;;;2.35;;
70270;SDS011;57680;54.292;18.598;2023-12-29T02:14:57;6.65;;;2.30;;
70270;SDS011;57680;54.292;18.598;2023-12-29T02:17:26;7.00;;;2.57;;
70270;SDS011;57680;54.292;18.598;2023-12-29T02:19:55;8.00;;;2.70;;
70270;SDS011;57680;54.292;18.598;2023-12-29T02:22:21;7.63;;;2.50;;
70270;SDS011;57680;54.292;18.598;2023-12-29T02:24:47;7.53;;;2.40;;
70270;SDS011;57680;54.292;18.598;2023-12-29T02:32:39;7.25;;;2.75;;
70270;SDS011;57680;54.292;18.598;2023-12-29T02:35:11;6.80;;;2.58;;
70270;SDS011;57680;54.292;18.598;2023-12-29T02:37:38;5.20;;;2.23;;
70270;SDS011;57680;54.292;18.598;2023-12-29T02:40:05;6.55;;;2.63;;
70270;SDS011;57680;54.292;18.598;2023-12-29T02:42:32;6.32;;;2.55;;
70270;SDS011;57680;54.292;18.598;2023-12-29T02:44:58;6.47;;;2.53;;
70270;SDS011;57680;54.292;18.598;2023-12-29T02:47:23;10.00;;;2.50;;
70270;SDS011;57680;54.292;18.598;2023-12-29T02:49:48;6.55;;;2.78;;
70270;SDS011;57680;54.292;18.598;2023-12-29T02:52:14;6.07;;;2.57;;
70270;SDS011;57680;54.292;18.598;2023-12-29T02:54:39;6.37;;;2.70;;
70270;SDS011;57680;54.292;18.598;2023-12-29T02:57:04;5.60;;;2.30;;
70270;SDS011;57680;54.292;18.598;2023-12-29T02:59:30;6.60;;;2.57;;
70270;SDS011;57680;54.292;18.598;2023-12-29T03:01:55;7.33;;;2.50;;
70270;SDS011;57680;54.292;18.598;2023-12-29T03:04:20;5.60;;;2.67;;
70270;SDS011;57680;54.292;18.598;2023-12-29T03:06:46;8.77;;;2.30;;
70270;SDS011;57680;54.292;18.598;2023-12-29T03:09:11;6.73;;;2.50;;
70270;SDS011;57680;54.292;18.598;2023-12-29T03:11:37;5.93;;;2.40;;
70270;SDS011;57680;54.292;18.598;2023-12-29T03:14:02;6.53;;;2.33;;
70270;SDS011;57680;54.292;18.598;2023-12-29T03:16:27;6.37;;;2.40;;
70270;SDS011;57680;54.292;18.598;2023-12-29T03:18:53;6.67;;;2.40;;
70270;SDS011;57680;54.292;18.598;2023-12-29T03:21:18;5.82;;;2.45;;
70270;SDS011;57680;54.292;18.598;2023-12-29T03:23:43;5.77;;;2.10;;
70270;SDS011;57680;54.292;18.598;2023-12-29T03:26:09;6.97;;;2.50;;
70270;SDS011;57680;54.292;18.598;2023-12-29T03:28:34;6.63;;;1.90;;
70270;SDS011;57680;54.292;18.598;2023-12-29T03:31:00;6.97;;;2.80;;
70270;SDS011;57680;54.292;18.598;2023-12-29T03:33:25;7.00;;;2.22;;
70270;SDS011;57680;54.292;18.598;2023-12-29T03:35:50;6.73;;;2.43;;
70270;SDS011;57680;54.292;18.598;2023-12-29T03:38:16;6.90;;;2.50;;
70270;SDS011;57680;54.292;18.598;2023-12-29T03:40:41;6.30;;;2.30;;
70270;SDS011;57680;54.292;18.598;2023-12-29T03:43:06;5.30;;;2.30;;
70270;SDS011;57680;54.292;18.598;2023-12-29T03:45:32;6.27;;;2.40;;
70270;SDS011;57680;54.292;18.598;2023-12-29T03:47:57;5.57;;;2.10;;
70270;SDS011;57680;54.292;18.598;2023-12-29T03:50:22;6.33;;;2.10;;
70270;SDS011;57680;54.292;18.598;2023-12-29T03:52:48;6.47;;;2.33;;
70270;SDS011;57680;54.292;18.598;2023-12-29T03:55:13;6.33;;;2.20;;
70270;SDS011;57680;54.292;18.598;2023-12-29T03:57:38;5.63;;;2.30;;
70270;SDS011;57680;54.292;18.598;2023-12-29T04:00:04;7.03;;;2.43;;
70270;SDS011;57680;54.292;18.598;2023-12-29T04:02:30;6.72;;;2.50;;
70270;SDS011;57680;54.292;18.598;2023-12-29T04:04:55;5.57;;;2.33;;
70270;SDS011;57680;54.292;18.598;2023-12-29T04:07:21;7.32;;;2.40;;
70270;SDS011;57680;54.292;18.598;2023-12-29T04:09:46;6.30;;;2.37;;
70270;SDS011;57680;54.292;18.598;2023-12-29T04:12:11;5.23;;;2.30;;
70270;SDS011;57680;54.292;18.598;2023-12-29T04:14:37;6.37;;;2.17;;
70270;SDS011;57680;54.292;18.598;2023-12-29T04:17:02;5.60;;;2.07;;
70270;SDS011;57680;54.292;18.598;2023-12-29T04:19:27;5.60;;;1.93;;
70270;SDS011;57680;54.292;18.598;2023-12-29T04:21:53;6.63;;;2.63;;
70270;SDS011;57680;54.292;18.598;2023-12-29T04:24:18;8.10;;;2.37;;
70270;SDS011;57680;54.292;18.598;2023-12-29T04:26:44;7.77;;;2.20;;
70270;SDS011;57680;54.292;18.598;2023-12-29T04:29:09;6.70;;;2.20;;
70270;SDS011;57680;54.292;18.598;2023-12-29T04:31:34;7.27;;;2.30;;
70270;SDS011;57680;54.292;18.598;2023-12-29T04:34:00;6.50;;;2.30;;
70270;SDS011;57680;54.292;18.598;2023-12-29T04:36:25;5.20;;;2.17;;
70270;SDS011;57680;54.292;18.598;2023-12-29T04:38:51;7.37;;;2.23;;
70270;SDS011;57680;54.292;18.598;2023-12-29T04:41:16;5.87;;;2.17;;
70270;SDS011;57680;54.292;18.598;2023-12-29T04:43:41;5.33;;;2.27;;
70270;SDS011;57680;54.292;18.598;2023-12-29T04:46:07;5.57;;;2.37;;
70270;SDS011;57680;54.292;18.598;2023-12-29T04:48:32;5.70;;;2.40;;
70270;SDS011;57680;54.292;18.598;2023-12-29T04:50:57;8.33;;;2.37;;
70270;SDS011;57680;54.292;18.598;2023-12-29T04:53:23;8.20;;;2.50;;
70270;SDS011;57680;54.292;18.598;2023-12-29T04:55:48;10.17;;;3.27;;
70270;SDS011;57680;54.292;18.598;2023-12-29T04:58:14;9.70;;;2.97;;
70270;SDS011;57680;54.292;18.598;2023-12-29T05:00:39;10.30;;;2.70;;
70270;SDS011;57680;54.292;18.598;2023-12-29T05:03:04;8.23;;;2.40;;
70270;SDS011;57680;54.292;18.598;2023-12-29T05:05:30;11.07;;;2.90;;
70270;SDS011;57680;54.292;18.598;2023-12-29T05:07:55;10.90;;;3.40;;
70270;SDS011;57680;54.292;18.598;2023-12-29T05:10:20;7.83;;;2.37;;
70270;SDS011;57680;54.292;18.598;2023-12-29T05:12:46;6.60;;;2.40;;
70270;SDS011;57680;54.292;18.598;2023-12-29T05:15:11;7.25;;;2.40;;
70270;SDS011;57680;54.292;18.598;2023-12-29T05:17:37;6.87;;;2.20;;
70270;SDS011;57680;54.292;18.598;2023-12-29T05:20:02;6.07;;;2.33;;
70270;SDS011;57680;54.292;18.598;2023-12-29T05:22:28;8.15;;;2.42;;
70270;SDS011;57680;54.292;18.598;2023-12-29T05:24:53;5.97;;;2.17;;
70270;SDS011;57680;54.292;18.598;2023-12-29T05:27:18;7.80;;;2.10;;
70270;SDS011;57680;54.292;18.598;2023-12-29T05:29:44;5.67;;;2.27;;
70270;SDS011;57680;54.292;18.598;2023-12-29T05:32:09;6.20;;;2.37;;
70270;SDS011;57680;54.292;18.598;2023-12-29T05:34:35;5.20;;;2.00;;
70270;SDS011;57680;54.292;18.598;2023-12-29T05:37:00;7.77;;;2.30;;
70270;SDS011;57680;54.292;18.598;2023-12-29T05:39:25;5.40;;;1.67;;
70270;SDS011;57680;54.292;18.598;2023-12-29T05:41:51;5.27;;;1.80;;
70270;SDS011;57680;54.292;18.598;2023-12-29T05:44:17;5.32;;;1.90;;
70270;SDS011;57680;54.292;18.598;2023-12-29T05:46:45;4.30;;;2.10;;
70270;SDS011;57680;54.292;18.598;2023-12-29T05:49:11;4.75;;;2.20;;
70270;SDS011;57680;54.292;18.598;2023-12-29T05:51:37;4.70;;;2.20;;
70270;SDS011;57680;54.292;18.598;2023-12-29T05:54:02;6.87;;;2.63;;
70270;SDS011;57680;54.292;18.598;2023-12-29T05:56:27;6.00;;;2.20;;
70270;SDS011;57680;54.292;18.598;2023-12-29T05:58:53;5.70;;;2.00;;
70270;SDS011;57680;54.292;18.598;2023-12-29T06:01:19;6.67;;;1.80;;
70270;SDS011;57680;54.292;18.598;2023-12-29T06:03:44;7.38;;;2.13;;
70270;SDS011;57680;54.292;18.598;2023-12-29T06:06:10;4.90;;;1.90;;
70270;SDS011;57680;54.292;18.598;2023-12-29T06:08:35;5.43;;;2.00;;
70270;SDS011;57680;54.292;18.598;2023-12-29T06:11:00;5.30;;;2.23;;
70270;SDS011;57680;54.292;18.598;2023-12-29T06:13:27;7.67;;;2.20;;
70270;SDS011;57680;54.292;18.598;2023-12-29T06:15:53;7.25;;;1.95;;
70270;SDS011;57680;54.292;18.598;2023-12-29T06:18:18;5.53;;;2.10;;
70270;SDS011;57680;54.292;18.598;2023-12-29T06:20:44;5.53;;;2.30;;
70270;SDS011;57680;54.292;18.598;2023-12-29T06:23:09;5.43;;;2.37;;
70270;SDS011;57680;54.292;18.598;2023-12-29T06:25:34;6.20;;;2.20;;
70270;SDS011;57680;54.292;18.598;2023-12-29T06:28:00;6.93;;;1.80;;
70270;SDS011;57680;54.292;18.598;2023-12-29T06:30:25;5.13;;;1.97;;
70270;SDS011;57680;54.292;18.598;2023-12-29T06:32:50;7.90;;;2.40;;
70270;SDS011;57680;54.292;18.598;2023-12-29T06:35:16;7.37;;;2.53;;
70270;SDS011;57680;54.292;18.598;2023-12-29T06:37:41;7.73;;;2.20;;
70270;SDS011;57680;54.292;18.598;2023-12-29T06:40:06;4.90;;;1.80;;
70270;SDS011;57680;54.292;18.598;2023-12-29T06:42:35;5.03;;;1.90;;
70270;SDS011;57680;54.292;18.598;2023-12-29T06:45:02;4.32;;;1.77;;
70270;SDS011;57680;54.292;18.598;2023-12-29T06:47:29;6.63;;;2.00;;
70270;SDS011;57680;54.292;18.598;2023-12-29T06:49:55;5.10;;;2.30;;
70270;SDS011;57680;54.292;18.598;2023-12-29T06:52:20;7.77;;;2.60;;
70270;SDS011;57680;54.292;18.598;2023-12-29T06:54:45;6.97;;;2.07;;
70270;SDS011;57680;54.292;18.598;2023-12-29T06:57:11;5.63;;;2.30;;
70270;SDS011;57680;54.292;18.598;2023-12-29T06:59:36;5.23;;;2.10;;
70270;SDS011;57680;54.292;18.598;2023-12-29T07:02:02;6.27;;;2.20;;
70270;SDS011;57680;54.292;18.598;2023-12-29T07:04:27;5.57;;;1.90;;
70270;SDS011;57680;54.292;18.598;2023-12-29T07:06:53;5.87;;;1.90;;
70270;SDS011;57680;54.292;18.598;2023-12-29T07:09:18;4.87;;;2.00;;
70270;SDS011;57680;54.292;18.598;2023-12-29T07:11:47;6.80;;;1.90;;
70270;SDS011;57680;54.292;18.598;2023-12-29T07:14:13;5.35;;;2.00;;
70270;SDS011;57680;54.292;18.598;2023-12-29T07:16:38;5.23;;;2.10;;
70270;SDS011;57680;54.292;18.598;2023-12-29T07:19:04;4.63;;;1.50;;
70270;SDS011;57680;54.292;18.598;2023-12-29T07:21:29;5.50;;;1.97;;
70270;SDS011;57680;54.292;18.598;2023-12-29T07:23:55;4.57;;;1.85;;
70270;SDS011;57680;54.292;18.598;2023-12-29T07:26:20;4.50;;;1.60;;
70270;SDS011;57680;54.292;18.598;2023-12-29T07:28:45;4.63;;;1.63;;
70270;SDS011;57680;54.292;18.598;2023-12-29T07:31:11;4.40;;;1.60;;
70270;SDS011;57680;54.292;18.598;2023-12-29T07:33:36;4.63;;;1.63;;
70270;SDS011;57680;54.292;18.598;2023-12-29T07:36:02;5.23;;;1.90;;
70270;SDS011;57680;54.292;18.598;2023-12-29T07:38:27;5.63;;;1.73;;
70270;SDS011;57680;54.292;18.598;2023-12-29T07:40:53;4.83;;;1.73;;
70270;SDS011;57680;54.292;18.598;2023-12-29T07:43:18;5.37;;;2.07;;
70270;SDS011;57680;54.292;18.598;2023-12-29T07:45:43;5.87;;;2.00;;
70270;SDS011;57680;54.292;18.598;2023-12-29T07:48:09;4.77;;;1.90;;
70270;SDS011;57680;54.292;18.598;2023-12-29T07:50:34;4.77;;;1.70;;
70270;SDS011;57680;54.292;18.598;2023-12-29T07:53:00;6.97;;;1.90;;
70270;SDS011;57680;54.292;18.598;2023-12-29T07:55:25;5.63;;;1.70;;
70270;SDS011;57680;54.292;18.598;2023-12-29T07:57:50;5.67;;;1.97;;
70270;SDS011;57680;54.292;18.598;2023-12-29T08:00:16;5.30;;;1.87;;
70270;SDS011;57680;54.292;18.598;2023-12-29T08:02:41;4.53;;;1.40;;
70270;SDS011;57680;54.292;18.598;2023-12-29T08:05:07;5.15;;;1.83;;
70270;SDS011;57680;54.292;18.598;2023-12-29T08:07:32;5.87;;;1.80;;
70270;SDS011;57680;54.292;18.598;2023-12-29T08:09:58;5.77;;;1.90;;
70270;SDS011;57680;54.292;18.598;2023-12-29T08:12:24;6.10;;;1.83;;
70270;SDS011;57680;54.292;18.598;2023-12-29T08:14:49;5.67;;;2.13;;
70270;SDS011;57680;54.292;18.598;2023-12-29T08:17:14;6.77;;;1.97;;
70270;SDS011;57680;54.292;18.598;2023-12-29T08:19:40;4.27;;;1.50;;
70270;SDS011;57680;54.292;18.598;2023-12-29T08:22:05;5.50;;;1.90;;
70270;SDS011;57680;54.292;18.598;2023-12-29T08:24:31;5.07;;;1.73;;
70270;SDS011;57680;54.292;18.598;2023-12-29T08:26:56;4.97;;;1.77;;
70270;SDS011;57680;54.292;18.598;2023-12-29T08:29:21;6.27;;;2.00;;
70270;SDS011;57680;54.292;18.598;2023-12-29T08:31:47;5.30;;;1.90;;
70270;SDS011;57680;54.292;18.598;2023-12-29T08:34:12;5.22;;;1.75;;
70270;SDS011;57680;54.292;18.598;2023-12-29T08:36:37;4.00;;;1.50;;
70270;SDS011;57680;54.292;18.598;2023-12-29T08:39:03;5.07;;;1.60;;
70270;SDS011;57680;54.292;18.598;2023-12-29T08:41:28;6.00;;;1.83;;
70270;SDS011;57680;54.292;18.598;2023-12-29T08:43:53;5.80;;;1.70;;
70270;SDS011;57680;54.292;18.598;2023-12-29T08:46:19;6.23;;;1.80;;
70270;SDS011;57680;54.292;18.598;2023-12-29T08:48:45;4.18;;;1.48;;
70270;SDS011;57680;54.292;18.598;2023-12-29T08:51:11;4.57;;;1.70;;
70270;SDS011;57680;54.292;18.598;2023-12-29T08:53:36;4.40;;;1.30;;
70270;SDS011;57680;54.292;18.598;2023-12-29T08:56:02;3.97;;;1.60;;
70270;SDS011;57680;54.292;18.598;2023-12-29T08:58:27;4.63;;;1.70;;
70270;SDS011;57680;54.292;18.598;2023-12-29T09:00:54;5.57;;;2.08;;
70270;SDS011;57680;54.292;18.598;2023-12-29T09:03:19;5.10;;;1.70;;
70270;SDS011;57680;54.292;18.598;2023-12-29T09:05:44;5.53;;;1.70;;
70270;SDS011;57680;54.292;18.598;2023-12-29T09:08:10;6.00;;;1.90;;
70270;SDS011;57680;54.292;18.598;2023-12-29T09:10:35;6.30;;;1.60;;
70270;SDS011;57680;54.292;18.598;2023-12-29T09:13:00;3.67;;;1.57;;
70270;SDS011;57680;54.292;18.598;2023-12-29T09:15:26;5.10;;;1.47;;
70270;SDS011;57680;54.292;18.598;2023-12-29T09:17:51;5.10;;;1.50;;
70270;SDS011;57680;54.292;18.598;2023-12-29T09:20:17;6.57;;;1.77;;
70270;SDS011;57680;54.292;18.598;2023-12-29T09:22:42;4.47;;;1.50;;
70270;SDS011;57680;54.292;18.598;2023-12-29T09:25:08;5.57;;;1.80;;
70270;SDS011;57680;54.292;18.598;2023-12-29T09:27:33;5.00;;;1.80;;
70270;SDS011;57680;54.292;18.598;2023-12-29T09:29:58;4.23;;;1.50;;
70270;SDS011;57680;54.292;18.598;2023-12-29T09:32:24;6.80;;;1.63;;
70270;SDS011;57680;54.292;18.598;2023-12-29T09:34:49;5.80;;;1.80;;
70270;SDS011;57680;54.292;18.598;2023-12-29T09:37:14;5.57;;;1.60;;
70270;SDS011;57680;54.292;18.598;2023-12-29T09:39:41;5.13;;;1.58;;
70270;SDS011;57680;54.292;18.598;2023-12-29T09:42:07;4.50;;;1.60;;
70270;SDS011;57680;54.292;18.598;2023-12-29T09:44:38;3.90;;;1.70;;
70270;SDS011;57680;54.292;18.598;2023-12-29T09:47:03;6.20;;;1.67;;
70270;SDS011;57680;54.292;18.598;2023-12-29T09:49:31;4.78;;;1.30;;
70270;SDS011;57680;54.292;18.598;2023-12-29T09:52:03;3.58;;;1.48;;
70270;SDS011;57680;54.292;18.598;2023-12-29T09:54:31;5.20;;;1.77;;
70270;SDS011;57680;54.292;18.598;2023-12-29T09:56:57;3.73;;;1.40;;
70270;SDS011;57680;54.292;18.598;2023-12-29T09:59:23;5.13;;;1.55;;
70270;SDS011;57680;54.292;18.598;2023-12-29T10:01:49;5.07;;;1.90;;
70270;SDS011;57680;54.292;18.598;2023-12-29T10:04:16;5.90;;;1.53;;
70270;SDS011;57680;54.292;18.598;2023-12-29T10:06:42;5.20;;;1.67;;
70270;SDS011;57680;54.292;18.598;2023-12-29T10:09:10;4.80;;;1.80;;
70270;SDS011;57680;54.292;18.598;2023-12-29T10:11:37;4.28;;;1.80;;
70270;SDS011;57680;54.292;18.598;2023-12-29T10:14:03;4.80;;;1.70;;
70270;SDS011;57680;54.292;18.598;2023-12-29T10:16:49;4.20;;;1.65;;
70270;SDS011;57680;54.292;18.598;2023-12-29T10:22:06;7.38;;;2.05;;
70270;SDS011;57680;54.292;18.598;2023-12-29T10:24:33;6.88;;;2.40;;
70270;SDS011;57680;54.292;18.598;2023-12-29T10:27:00;4.75;;;1.80;;
70270;SDS011;57680;54.292;18.598;2023-12-29T10:29:26;6.33;;;1.90;;
70270;SDS011;57680;54.292;18.598;2023-12-29T10:31:52;4.97;;;2.40;;
70270;SDS011;57680;54.292;18.598;2023-12-29T10:36:49;6.32;;;1.70;;
70270;SDS011;57680;54.292;18.598;2023-12-29T10:39:15;4.78;;;1.70;;
70270;SDS011;57680;54.292;18.598;2023-12-29T10:41:41;6.33;;;2.10;;
70270;SDS011;57680;54.292;18.598;2023-12-29T10:44:06;4.93;;;2.22;;
70270;SDS011;57680;54.292;18.598;2023-12-29T10:46:32;4.33;;;1.73;;
70270;SDS011;57680;54.292;18.598;2023-12-29T10:49:08;4.85;;;1.92;;
70270;SDS011;57680;54.292;18.598;2023-12-29T10:51:34;5.30;;;1.80;;
70270;SDS011;57680;54.292;18.598;2023-12-29T10:53:59;4.30;;;1.42;;
70270;SDS011;57680;54.292;18.598;2023-12-29T10:56:24;4.23;;;1.30;;
70270;SDS011;57680;54.292;18.598;2023-12-29T10:59:05;4.30;;;1.60;;
70270;SDS011;57680;54.292;18.598;2023-12-29T11:01:31;4.93;;;1.40;;
70270;SDS011;57680;54.292;18.598;2023-12-29T11:04:02;2.83;;;1.40;;
70270;SDS011;57680;54.292;18.598;2023-12-29T11:06:29;5.20;;;1.90;;
70270;SDS011;57680;54.292;18.598;2023-12-29T11:09:04;4.65;;;1.60;;
70270;SDS011;57680;54.292;18.598;2023-12-29T11:11:29;5.17;;;1.50;;
70270;SDS011;57680;54.292;18.598;2023-12-29T11:13:55;4.35;;;1.30;;
70270;SDS011;57680;54.292;18.598;2023-12-29T11:16:20;4.00;;;1.40;;
70270;SDS011;57680;54.292;18.598;2023-12-29T11:18:46;3.72;;;1.02;;
70270;SDS011;57680;54.292;18.598;2023-12-29T11:21:14;5.75;;;1.50;;
70270;SDS011;57680;54.292;18.598;2023-12-29T11:23:41;3.10;;;1.13;;
70270;SDS011;57680;54.292;18.598;2023-12-29T11:26:06;3.73;;;1.30;;
70270;SDS011;57680;54.292;18.598;2023-12-29T11:28:32;4.57;;;1.10;;
70270;SDS011;57680;54.292;18.598;2023-12-29T11:30:57;3.07;;;0.80;;
70270;SDS011;57680;54.292;18.598;2023-12-29T11:36:07;4.00;;;1.10;;
70270;SDS011;57680;54.292;18.598;2023-12-29T11:44:09;6.22;;;1.38;;
70270;SDS011;57680;54.292;18.598;2023-12-29T11:46:38;3.20;;;1.10;;
70270;SDS011;57680;54.292;18.598;2023-12-29T11:49:05;5.70;;;2.00;;
70270;SDS011;57680;54.292;18.598;2023-12-29T11:51:44;5.30;;;1.30;;
70270;SDS011;57680;54.292;18.598;2023-12-29T11:54:29;4.25;;;1.38;;
70270;SDS011;57680;54.292;18.598;2023-12-29T11:56:55;4.15;;;0.98;;
70270;SDS011;57680;54.292;18.598;2023-12-29T11:59:21;4.27;;;1.10;;
70270;SDS011;57680;54.292;18.598;2023-12-29T12:01:51;4.25;;;1.10;;
70270;SDS011;57680;54.292;18.598;2023-12-29T12:04:37;3.58;;;1.00;;
70270;SDS011;57680;54.292;18.598;2023-12-29T12:09:46;3.53;;;1.17;;
70270;SDS011;57680;54.292;18.598;2023-12-29T12:12:12;5.63;;;1.20;;
70270;SDS011;57680;54.292;18.598;2023-12-29T12:14:51;3.83;;;1.00;;
70270;SDS011;57680;54.292;18.598;2023-12-29T12:17:50;3.10;;;0.95;;
70270;SDS011;57680;54.292;18.598;2023-12-29T12:20:09;4.63;;;0.90;;
70270;SDS011;57680;54.292;18.598;2023-12-29T12:22:34;5.20;;;1.50;;
70270;SDS011;57680;54.292;18.598;2023-12-29T12:25:01;5.63;;;1.05;;
70270;SDS011;57680;54.292;18.598;2023-12-29T12:27:27;6.97;;;1.30;;
70270;SDS011;57680;54.292;18.598;2023-12-29T12:29:56;2.78;;;0.70;;
70270;SDS011;57680;54.292;18.598;2023-12-29T12:32:22;3.58;;;1.00;;
70270;SDS011;57680;54.292;18.598;2023-12-29T12:37:38;3.70;;;1.70;;
70270;SDS011;57680;54.292;18.598;2023-12-29T12:40:04;2.95;;;0.60;;
70270;SDS011;57680;54.292;18.598;2023-12-29T12:42:29;3.77;;;0.87;;
70270;SDS011;57680;54.292;18.598;2023-12-29T12:47:31;3.78;;;0.90;;
70270;SDS011;57680;54.292;18.598;2023-12-29T12:49:59;5.38;;;1.10;;
70270;SDS011;57680;54.292;18.598;2023-12-29T12:52:25;4.68;;;1.00;;
70270;SDS011;57680;54.292;18.598;2023-12-29T12:54:52;7.03;;;0.90;;
70270;SDS011;57680;54.292;18.598;2023-12-29T12:57:19;4.72;;;0.93;;
70270;SDS011;57680;54.292;18.598;2023-12-29T12:59:45;3.72;;;0.73;;
70270;SDS011;57680;54.292;18.598;2023-12-29T13:02:11;3.00;;;0.80;;
70270;SDS011;57680;54.292;18.598;2023-12-29T13:04:39;2.97;;;0.80;;
70270;SDS011;57680;54.292;18.598;2023-12-29T13:07:06;3.55;;;0.90;;
70270;SDS011;57680;54.292;18.598;2023-12-29T13:09:31;2.30;;;0.93;;
70270;SDS011;57680;54.292;18.598;2023-12-29T13:12:09;3.30;;;0.70;;
70270;SDS011;57680;54.292;18.598;2023-12-29T13:14:35;3.93;;;0.90;;
70270;SDS011;57680;54.292;18.598;2023-12-29T13:17:11;2.38;;;0.77;;
70270;SDS011;57680;54.292;18.598;2023-12-29T13:19:37;2.72;;;0.70;;
70270;SDS011;57680;54.292;18.598;2023-12-29T13:22:03;2.77;;;1.00;;
70270;SDS011;57680;54.292;18.598;2023-12-29T13:24:30;1.52;;;0.60;;
70270;SDS011;57680;54.292;18.598;2023-12-29T13:27:06;3.38;;;1.10;;
70270;SDS011;57680;54.292;18.598;2023-12-29T13:29:33;2.60;;;1.00;;
70270;SDS011;57680;54.292;18.598;2023-12-29T13:32:19;2.65;;;0.93;;
70270;SDS011;57680;54.292;18.598;2023-12-29T13:37:36;2.38;;;1.00;;
70270;SDS011;57680;54.292;18.598;2023-12-29T13:40:14;3.78;;;1.23;;
70270;SDS011;57680;54.292;18.598;2023-12-29T13:42:47;4.90;;;1.13;;
70270;SDS011;57680;54.292;18.598;2023-12-29T13:45:15;3.03;;;1.10;;
70270;SDS011;57680;54.292;18.598;2023-12-29T13:47:42;4.00;;;1.40;;
70270;SDS011;57680;54.292;18.598;2023-12-29T13:50:10;3.08;;;0.90;;
70270;SDS011;57680;54.292;18.598;2023-12-29T13:52:37;2.97;;;1.07;;
70270;SDS011;57680;54.292;18.598;2023-12-29T13:55:03;3.72;;;1.23;;
70270;SDS011;57680;54.292;18.598;2023-12-29T13:57:33;5.85;;;1.48;;
70270;SDS011;57680;54.292;18.598;2023-12-29T14:02:44;3.28;;;1.27;;
70270;SDS011;57680;54.292;18.598;2023-12-29T14:05:10;4.60;;;1.37;;
70270;SDS011;57680;54.292;18.598;2023-12-29T14:08:04;4.40;;;1.33;;
70270;SDS011;57680;54.292;18.598;2023-12-29T14:10:30;5.63;;;1.65;;
70270;SDS011;57680;54.292;18.598;2023-12-29T14:13:06;6.22;;;2.00;;
70270;SDS011;57680;54.292;18.598;2023-12-29T14:15:35;3.55;;;1.48;;
70270;SDS011;57680;54.292;18.598;2023-12-29T14:18:03;4.50;;;1.60;;
70270;SDS011;57680;54.292;18.598;2023-12-29T14:20:51;5.10;;;1.50;;
70270;SDS011;57680;54.292;18.598;2023-12-29T14:23:20;3.47;;;1.43;;
70270;SDS011;57680;54.292;18.598;2023-12-29T14:25:45;5.95;;;1.40;;
70270;SDS011;57680;54.292;18.598;2023-12-29T14:28:14;5.07;;;1.50;;
70270;SDS011;57680;54.292;18.598;2023-12-29T14:30:43;5.57;;;1.48;;
70270;SDS011;57680;54.292;18.598;2023-12-29T14:33:09;6.82;;;1.90;;
70270;SDS011;57680;54.292;18.598;2023-12-29T14:35:35;6.20;;;1.60;;
70270;SDS011;57680;54.292;18.598;2023-12-29T14:38:00;5.07;;;1.48;;
70270;SDS011;57680;54.292;18.598;2023-12-29T14:40:26;6.63;;;1.87;;
70270;SDS011;57680;54.292;18.598;2023-12-29T14:42:51;3.53;;;1.20;;
70270;SDS011;57680;54.292;18.598;2023-12-29T14:45:17;5.43;;;1.73;;
70270;SDS011;57680;54.292;18.598;2023-12-29T14:47:42;4.67;;;1.53;;
70270;SDS011;57680;54.292;18.598;2023-12-29T14:50:07;4.27;;;1.60;;
70270;SDS011;57680;54.292;18.598;2023-12-29T14:52:33;7.10;;;1.65;;
70270;SDS011;57680;54.292;18.598;2023-12-29T14:54:59;4.73;;;1.87;;
70270;SDS011;57680;54.292;18.598;2023-12-29T14:57:24;3.97;;;1.53;;
70270;SDS011;57680;54.292;18.598;2023-12-29T14:59:49;8.37;;;1.90;;
70270;SDS011;57680;54.292;18.598;2023-12-29T15:02:15;5.15;;;1.88;;